Аэропорт: Нижневартовск. Нижневартовск

ICAO: USNN

METAR:
2022-06-26 10:30:00
USNN 261030Z 00000MPS 9999 FEW030CB 18/16 Q0994 R21/25//58 TEMPO 3100 -TSRA RMK QFE741
METAR:
2022-06-26 07:50:00
TAF USNN 260750Z 2609/2709 14003G11MPS 8000 -SHRA FEW010 SCT016CB BKN050 TEMPO 2609/2618 VRB20MPS 1000 TSRA SQ FEW005 BKN016CB BECMG 2618/2619 25003G12MPS